sensor_id;sensor_type;location;lat;lon;timestamp;P1;durP1;ratioP1;P2;durP2;ratioP2
64799;SDS011;51233;51.982;4.594;2023-09-07T00:02:24;6.72;;;5.30;;
64799;SDS011;51233;51.982;4.594;2023-09-07T00:05:24;5.05;;;4.65;;
64799;SDS011;51233;51.982;4.594;2023-09-07T00:08:24;5.20;;;4.80;;
64799;SDS011;51233;51.982;4.594;2023-09-07T00:11:25;5.10;;;4.68;;
64799;SDS011;51233;51.982;4.594;2023-09-07T00:14:25;5.70;;;5.20;;
64799;SDS011;51233;51.982;4.594;2023-09-07T00:17:28;4.38;;;4.07;;
64799;SDS011;51233;51.982;4.594;2023-09-07T00:20:28;5.05;;;4.65;;
64799;SDS011;51233;51.982;4.594;2023-09-07T00:23:28;4.87;;;4.47;;
64799;SDS011;51233;51.982;4.594;2023-09-07T00:26:35;5.18;;;4.68;;
64799;SDS011;51233;51.982;4.594;2023-09-07T00:29:41;5.07;;;4.72;;
64799;SDS011;51233;51.982;4.594;2023-09-07T00:32:41;5.40;;;4.90;;
64799;SDS011;51233;51.982;4.594;2023-09-07T00:35:41;5.10;;;4.60;;
64799;SDS011;51233;51.982;4.594;2023-09-07T00:38:42;5.80;;;5.13;;
64799;SDS011;51233;51.982;4.594;2023-09-07T00:41:42;8.03;;;5.23;;
64799;SDS011;51233;51.982;4.594;2023-09-07T00:44:42;4.70;;;4.40;;
64799;SDS011;51233;51.982;4.594;2023-09-07T00:47:42;5.33;;;4.93;;
64799;SDS011;51233;51.982;4.594;2023-09-07T00:50:43;5.80;;;5.30;;
64799;SDS011;51233;51.982;4.594;2023-09-07T00:53:43;4.53;;;4.23;;
64799;SDS011;51233;51.982;4.594;2023-09-07T00:56:43;6.33;;;5.20;;
64799;SDS011;51233;51.982;4.594;2023-09-07T00:59:46;4.70;;;4.40;;
64799;SDS011;51233;51.982;4.594;2023-09-07T01:02:46;5.27;;;4.87;;
64799;SDS011;51233;51.982;4.594;2023-09-07T01:05:58;5.63;;;5.13;;
64799;SDS011;51233;51.982;4.594;2023-09-07T01:09:00;5.40;;;4.85;;
64799;SDS011;51233;51.982;4.594;2023-09-07T01:12:03;5.50;;;5.05;;
64799;SDS011;51233;51.982;4.594;2023-09-07T01:15:04;5.47;;;5.03;;
64799;SDS011;51233;51.982;4.594;2023-09-07T01:18:06;5.50;;;5.10;;
64799;SDS011;51233;51.982;4.594;2023-09-07T01:21:07;5.35;;;4.80;;
64799;SDS011;51233;51.982;4.594;2023-09-07T01:24:08;5.47;;;4.97;;
64799;SDS011;51233;51.982;4.594;2023-09-07T01:27:09;5.35;;;4.95;;
64799;SDS011;51233;51.982;4.594;2023-09-07T01:30:09;5.53;;;5.00;;
64799;SDS011;51233;51.982;4.594;2023-09-07T01:33:11;6.00;;;5.40;;
64799;SDS011;51233;51.982;4.594;2023-09-07T01:36:11;5.38;;;4.93;;
64799;SDS011;51233;51.982;4.594;2023-09-07T01:39:11;6.73;;;6.00;;
64799;SDS011;51233;51.982;4.594;2023-09-07T01:42:11;5.57;;;5.07;;
64799;SDS011;51233;51.982;4.594;2023-09-07T01:45:12;6.43;;;5.55;;
64799;SDS011;51233;51.982;4.594;2023-09-07T01:48:21;5.97;;;5.37;;
64799;SDS011;51233;51.982;4.594;2023-09-07T01:51:21;5.25;;;4.85;;
64799;SDS011;51233;51.982;4.594;2023-09-07T01:54:21;5.27;;;4.87;;
64799;SDS011;51233;51.982;4.594;2023-09-07T01:57:22;6.07;;;5.50;;
64799;SDS011;51233;51.982;4.594;2023-09-07T02:00:22;9.13;;;5.67;;
64799;SDS011;51233;51.982;4.594;2023-09-07T02:03:22;5.80;;;5.30;;
64799;SDS011;51233;51.982;4.594;2023-09-07T02:06:22;8.05;;;6.25;;
64799;SDS011;51233;51.982;4.594;2023-09-07T02:09:23;6.10;;;5.50;;
64799;SDS011;51233;51.982;4.594;2023-09-07T02:12:23;6.55;;;5.95;;
64799;SDS011;51233;51.982;4.594;2023-09-07T02:15:23;5.80;;;4.97;;
64799;SDS011;51233;51.982;4.594;2023-09-07T02:18:23;7.13;;;5.45;;
64799;SDS011;51233;51.982;4.594;2023-09-07T02:21:24;5.40;;;4.90;;
64799;SDS011;51233;51.982;4.594;2023-09-07T02:24:26;6.13;;;5.63;;
64799;SDS011;51233;51.982;4.594;2023-09-07T02:27:26;7.60;;;6.80;;
64799;SDS011;51233;51.982;4.594;2023-09-07T02:30:27;6.70;;;6.07;;
64799;SDS011;51233;51.982;4.594;2023-09-07T02:33:27;7.93;;;6.28;;
64799;SDS011;51233;51.982;4.594;2023-09-07T02:36:27;6.23;;;5.67;;
64799;SDS011;51233;51.982;4.594;2023-09-07T02:39:30;6.25;;;5.75;;
64799;SDS011;51233;51.982;4.594;2023-09-07T02:42:30;7.20;;;6.40;;
64799;SDS011;51233;51.982;4.594;2023-09-07T02:45:30;6.85;;;6.25;;
64799;SDS011;51233;51.982;4.594;2023-09-07T02:48:31;9.38;;;6.70;;
64799;SDS011;51233;51.982;4.594;2023-09-07T02:51:32;7.05;;;6.45;;
64799;SDS011;51233;51.982;4.594;2023-09-07T02:54:32;11.95;;;6.10;;
64799;SDS011;51233;51.982;4.594;2023-09-07T02:57:32;6.10;;;5.60;;
64799;SDS011;51233;51.982;4.594;2023-09-07T03:00:32;7.43;;;6.73;;
64799;SDS011;51233;51.982;4.594;2023-09-07T03:03:34;6.75;;;6.10;;
64799;SDS011;51233;51.982;4.594;2023-09-07T03:06:35;6.68;;;6.13;;
64799;SDS011;51233;51.982;4.594;2023-09-07T03:09:35;7.10;;;6.50;;
64799;SDS011;51233;51.982;4.594;2023-09-07T03:12:36;7.57;;;6.87;;
64799;SDS011;51233;51.982;4.594;2023-09-07T03:15:36;6.70;;;6.20;;
64799;SDS011;51233;51.982;4.594;2023-09-07T03:18:37;7.35;;;6.75;;
64799;SDS011;51233;51.982;4.594;2023-09-07T03:21:37;8.83;;;7.97;;
64799;SDS011;51233;51.982;4.594;2023-09-07T03:24:38;7.27;;;6.53;;
64799;SDS011;51233;51.982;4.594;2023-09-07T03:27:38;8.70;;;7.70;;
64799;SDS011;51233;51.982;4.594;2023-09-07T03:30:38;9.07;;;8.03;;
64799;SDS011;51233;51.982;4.594;2023-09-07T03:33:38;10.57;;;8.03;;
64799;SDS011;51233;51.982;4.594;2023-09-07T03:36:38;9.30;;;8.50;;
64799;SDS011;51233;51.982;4.594;2023-09-07T03:39:39;10.13;;;8.50;;
64799;SDS011;51233;51.982;4.594;2023-09-07T03:42:39;9.75;;;8.40;;
64799;SDS011;51233;51.982;4.594;2023-09-07T03:45:39;8.50;;;7.80;;
64799;SDS011;51233;51.982;4.594;2023-09-07T03:48:39;10.00;;;9.10;;
64799;SDS011;51233;51.982;4.594;2023-09-07T03:51:40;9.82;;;8.82;;
64799;SDS011;51233;51.982;4.594;2023-09-07T03:54:40;9.37;;;8.47;;
64799;SDS011;51233;51.982;4.594;2023-09-07T03:57:40;9.80;;;8.93;;
64799;SDS011;51233;51.982;4.594;2023-09-07T04:00:40;9.53;;;8.73;;
64799;SDS011;51233;51.982;4.594;2023-09-07T04:03:41;9.10;;;8.30;;
64799;SDS011;51233;51.982;4.594;2023-09-07T04:06:41;13.40;;;8.90;;
64799;SDS011;51233;51.982;4.594;2023-09-07T04:09:42;7.97;;;7.20;;
64799;SDS011;51233;51.982;4.594;2023-09-07T04:12:43;9.80;;;8.85;;
64799;SDS011;51233;51.982;4.594;2023-09-07T04:15:44;8.98;;;8.07;;
64799;SDS011;51233;51.982;4.594;2023-09-07T04:18:44;8.73;;;7.63;;
64799;SDS011;51233;51.982;4.594;2023-09-07T04:21:44;7.53;;;6.83;;
64799;SDS011;51233;51.982;4.594;2023-09-07T04:24:47;7.93;;;7.20;;
64799;SDS011;51233;51.982;4.594;2023-09-07T04:27:47;7.53;;;6.93;;
64799;SDS011;51233;51.982;4.594;2023-09-07T04:30:47;7.75;;;7.05;;
64799;SDS011;51233;51.982;4.594;2023-09-07T04:33:47;8.18;;;7.47;;
64799;SDS011;51233;51.982;4.594;2023-09-07T04:36:48;8.02;;;7.20;;
64799;SDS011;51233;51.982;4.594;2023-09-07T04:39:51;8.67;;;7.87;;
64799;SDS011;51233;51.982;4.594;2023-09-07T04:42:52;7.95;;;7.20;;
64799;SDS011;51233;51.982;4.594;2023-09-07T04:45:53;9.05;;;7.72;;
64799;SDS011;51233;51.982;4.594;2023-09-07T04:48:53;10.50;;;8.90;;
64799;SDS011;51233;51.982;4.594;2023-09-07T04:51:56;10.13;;;7.77;;
64799;SDS011;51233;51.982;4.594;2023-09-07T04:54:56;7.57;;;6.88;;
64799;SDS011;51233;51.982;4.594;2023-09-07T04:57:57;8.32;;;7.53;;
64799;SDS011;51233;51.982;4.594;2023-09-07T05:04:03;7.85;;;7.15;;
64799;SDS011;51233;51.982;4.594;2023-09-07T05:07:04;7.50;;;6.90;;
64799;SDS011;51233;51.982;4.594;2023-09-07T05:10:04;8.40;;;7.60;;
64799;SDS011;51233;51.982;4.594;2023-09-07T05:13:06;7.05;;;6.45;;
64799;SDS011;51233;51.982;4.594;2023-09-07T05:16:06;9.85;;;7.60;;
64799;SDS011;51233;51.982;4.594;2023-09-07T05:19:07;9.57;;;8.13;;
64799;SDS011;51233;51.982;4.594;2023-09-07T05:22:07;7.85;;;6.65;;
64799;SDS011;51233;51.982;4.594;2023-09-07T05:25:13;9.37;;;8.53;;
64799;SDS011;51233;51.982;4.594;2023-09-07T05:28:14;9.90;;;8.88;;
64799;SDS011;51233;51.982;4.594;2023-09-07T05:31:18;9.55;;;8.48;;
64799;SDS011;51233;51.982;4.594;2023-09-07T05:34:18;9.93;;;8.90;;
64799;SDS011;51233;51.982;4.594;2023-09-07T05:37:18;10.43;;;8.10;;
64799;SDS011;51233;51.982;4.594;2023-09-07T05:40:18;9.37;;;8.10;;
64799;SDS011;51233;51.982;4.594;2023-09-07T05:43:18;7.47;;;6.75;;
64799;SDS011;51233;51.982;4.594;2023-09-07T05:46:19;10.07;;;8.80;;
64799;SDS011;51233;51.982;4.594;2023-09-07T05:49:19;7.80;;;7.10;;
64799;SDS011;51233;51.982;4.594;2023-09-07T05:52:19;7.50;;;6.73;;
64799;SDS011;51233;51.982;4.594;2023-09-07T05:55:19;8.83;;;7.43;;
64799;SDS011;51233;51.982;4.594;2023-09-07T05:58:19;12.07;;;8.50;;
64799;SDS011;51233;51.982;4.594;2023-09-07T06:01:20;6.40;;;5.90;;
64799;SDS011;51233;51.982;4.594;2023-09-07T06:04:20;10.80;;;8.57;;
64799;SDS011;51233;51.982;4.594;2023-09-07T06:07:20;9.68;;;8.55;;
64799;SDS011;51233;51.982;4.594;2023-09-07T06:10:20;9.27;;;8.37;;
64799;SDS011;51233;51.982;4.594;2023-09-07T06:13:20;4.50;;;4.10;;
64799;SDS011;51233;51.982;4.594;2023-09-07T06:16:21;7.63;;;6.90;;
64799;SDS011;51233;51.982;4.594;2023-09-07T06:19:21;5.50;;;5.00;;
64799;SDS011;51233;51.982;4.594;2023-09-07T06:22:22;6.30;;;5.63;;
64799;SDS011;51233;51.982;4.594;2023-09-07T06:25:22;6.20;;;5.63;;
64799;SDS011;51233;51.982;4.594;2023-09-07T06:28:25;7.00;;;6.30;;
64799;SDS011;51233;51.982;4.594;2023-09-07T06:31:31;7.28;;;6.03;;
64799;SDS011;51233;51.982;4.594;2023-09-07T06:34:31;9.57;;;6.97;;
64799;SDS011;51233;51.982;4.594;2023-09-07T06:37:31;8.75;;;6.90;;
64799;SDS011;51233;51.982;4.594;2023-09-07T06:40:32;6.40;;;4.07;;
64799;SDS011;51233;51.982;4.594;2023-09-07T06:43:32;10.32;;;9.27;;
64799;SDS011;51233;51.982;4.594;2023-09-07T06:46:33;9.90;;;8.27;;
64799;SDS011;51233;51.982;4.594;2023-09-07T06:49:33;6.03;;;5.27;;
64799;SDS011;51233;51.982;4.594;2023-09-07T06:52:33;6.27;;;5.70;;
64799;SDS011;51233;51.982;4.594;2023-09-07T06:55:33;12.17;;;8.50;;
64799;SDS011;51233;51.982;4.594;2023-09-07T06:58:36;10.13;;;9.13;;
64799;SDS011;51233;51.982;4.594;2023-09-07T07:01:37;9.82;;;8.65;;
64799;SDS011;51233;51.982;4.594;2023-09-07T07:04:37;10.07;;;8.80;;
64799;SDS011;51233;51.982;4.594;2023-09-07T07:07:37;12.85;;;9.23;;
64799;SDS011;51233;51.982;4.594;2023-09-07T07:10:37;8.97;;;8.10;;
64799;SDS011;51233;51.982;4.594;2023-09-07T07:13:38;9.73;;;8.77;;
64799;SDS011;51233;51.982;4.594;2023-09-07T07:16:38;12.30;;;9.27;;
64799;SDS011;51233;51.982;4.594;2023-09-07T07:19:38;10.87;;;9.00;;
64799;SDS011;51233;51.982;4.594;2023-09-07T07:22:38;15.17;;;8.70;;
64799;SDS011;51233;51.982;4.594;2023-09-07T07:25:38;8.73;;;7.93;;
64799;SDS011;51233;51.982;4.594;2023-09-07T07:28:39;15.37;;;8.63;;
64799;SDS011;51233;51.982;4.594;2023-09-07T07:31:39;10.67;;;8.67;;
64799;SDS011;51233;51.982;4.594;2023-09-07T07:34:39;11.93;;;8.60;;
64799;SDS011;51233;51.982;4.594;2023-09-07T07:37:39;10.03;;;8.07;;
64799;SDS011;51233;51.982;4.594;2023-09-07T07:40:42;9.80;;;8.10;;
64799;SDS011;51233;51.982;4.594;2023-09-07T07:43:43;11.75;;;7.53;;
64799;SDS011;51233;51.982;4.594;2023-09-07T07:46:43;8.77;;;7.45;;
64799;SDS011;51233;51.982;4.594;2023-09-07T07:49:43;9.98;;;8.45;;
64799;SDS011;51233;51.982;4.594;2023-09-07T07:52:44;11.17;;;7.27;;
64799;SDS011;51233;51.982;4.594;2023-09-07T07:55:44;9.57;;;7.30;;
64799;SDS011;51233;51.982;4.594;2023-09-07T07:58:44;9.93;;;7.33;;
64799;SDS011;51233;51.982;4.594;2023-09-07T08:01:47;11.37;;;7.67;;
64799;SDS011;51233;51.982;4.594;2023-09-07T08:04:48;8.45;;;7.65;;
64799;SDS011;51233;51.982;4.594;2023-09-07T08:07:48;11.23;;;7.55;;
64799;SDS011;51233;51.982;4.594;2023-09-07T08:10:48;10.82;;;8.13;;
64799;SDS011;51233;51.982;4.594;2023-09-07T08:13:49;10.60;;;6.97;;
64799;SDS011;51233;51.982;4.594;2023-09-07T08:16:49;7.77;;;6.73;;
64799;SDS011;51233;51.982;4.594;2023-09-07T08:19:49;9.80;;;7.03;;
64799;SDS011;51233;51.982;4.594;2023-09-07T08:22:55;11.27;;;7.75;;
64799;SDS011;51233;51.982;4.594;2023-09-07T08:25:55;9.53;;;7.67;;
64799;SDS011;51233;51.982;4.594;2023-09-07T08:28:55;9.90;;;7.47;;
64799;SDS011;51233;51.982;4.594;2023-09-07T08:31:55;7.60;;;6.60;;
64799;SDS011;51233;51.982;4.594;2023-09-07T08:34:57;6.75;;;5.82;;
64799;SDS011;51233;51.982;4.594;2023-09-07T08:38:01;7.07;;;6.38;;
64799;SDS011;51233;51.982;4.594;2023-09-07T08:41:07;5.45;;;4.95;;
64799;SDS011;51233;51.982;4.594;2023-09-07T08:44:08;9.50;;;7.70;;
64799;SDS011;51233;51.982;4.594;2023-09-07T08:47:09;6.80;;;5.63;;
64799;SDS011;51233;51.982;4.594;2023-09-07T08:50:09;5.53;;;5.00;;
64799;SDS011;51233;51.982;4.594;2023-09-07T08:53:10;7.50;;;6.80;;
64799;SDS011;51233;51.982;4.594;2023-09-07T08:56:13;10.93;;;7.55;;
64799;SDS011;51233;51.982;4.594;2023-09-07T08:59:13;8.63;;;7.20;;
64799;SDS011;51233;51.982;4.594;2023-09-07T09:02:13;7.27;;;6.20;;
64799;SDS011;51233;51.982;4.594;2023-09-07T09:05:14;8.50;;;6.50;;
64799;SDS011;51233;51.982;4.594;2023-09-07T09:08:15;8.40;;;6.70;;
64799;SDS011;51233;51.982;4.594;2023-09-07T09:11:20;9.43;;;6.47;;
64799;SDS011;51233;51.982;4.594;2023-09-07T09:14:21;11.93;;;6.70;;
64799;SDS011;51233;51.982;4.594;2023-09-07T09:17:24;7.70;;;6.90;;
64799;SDS011;51233;51.982;4.594;2023-09-07T09:20:25;12.50;;;6.27;;
64799;SDS011;51233;51.982;4.594;2023-09-07T09:23:30;6.82;;;6.03;;
64799;SDS011;51233;51.982;4.594;2023-09-07T09:26:32;6.72;;;6.13;;
64799;SDS011;51233;51.982;4.594;2023-09-07T09:29:33;5.68;;;3.25;;
64799;SDS011;51233;51.982;4.594;2023-09-07T09:32:34;6.35;;;5.75;;
64799;SDS011;51233;51.982;4.594;2023-09-07T09:35:34;7.47;;;6.77;;
64799;SDS011;51233;51.982;4.594;2023-09-07T09:38:35;7.53;;;5.63;;
64799;SDS011;51233;51.982;4.594;2023-09-07T09:41:35;8.13;;;5.30;;
64799;SDS011;51233;51.982;4.594;2023-09-07T09:44:38;13.20;;;7.40;;
64799;SDS011;51233;51.982;4.594;2023-09-07T09:47:40;7.55;;;6.22;;
64799;SDS011;51233;51.982;4.594;2023-09-07T09:50:40;8.98;;;6.15;;
64799;SDS011;51233;51.982;4.594;2023-09-07T09:53:42;8.15;;;5.47;;
64799;SDS011;51233;51.982;4.594;2023-09-07T09:56:42;11.53;;;7.83;;
64799;SDS011;51233;51.982;4.594;2023-09-07T09:59:43;5.53;;;4.30;;
64799;SDS011;51233;51.982;4.594;2023-09-07T10:02:45;8.32;;;5.07;;
64799;SDS011;51233;51.982;4.594;2023-09-07T10:05:45;7.57;;;6.30;;
64799;SDS011;51233;51.982;4.594;2023-09-07T10:09:07;4.05;;;3.38;;
64799;SDS011;51233;51.982;4.594;2023-09-07T10:15:23;2.95;;;2.75;;
64799;SDS011;51233;51.982;4.594;2023-09-07T10:18:32;6.22;;;5.55;;
64799;SDS011;51233;51.982;4.594;2023-09-07T10:21:33;4.40;;;3.92;;
64799;SDS011;51233;51.982;4.594;2023-09-07T10:24:39;5.70;;;3.35;;
64799;SDS011;51233;51.982;4.594;2023-09-07T10:27:41;5.50;;;5.00;;
64799;SDS011;51233;51.982;4.594;2023-09-07T10:30:42;6.67;;;4.93;;
64799;SDS011;51233;51.982;4.594;2023-09-07T10:33:42;5.30;;;4.77;;
64799;SDS011;51233;51.982;4.594;2023-09-07T10:36:42;5.83;;;5.30;;
64799;SDS011;51233;51.982;4.594;2023-09-07T10:39:43;6.25;;;5.65;;
64799;SDS011;51233;51.982;4.594;2023-09-07T10:42:43;5.50;;;4.07;;
64799;SDS011;51233;51.982;4.594;2023-09-07T10:45:44;4.80;;;3.65;;
64799;SDS011;51233;51.982;4.594;2023-09-07T10:48:44;8.30;;;4.97;;
64799;SDS011;51233;51.982;4.594;2023-09-07T10:51:45;5.90;;;4.67;;
64799;SDS011;51233;51.982;4.594;2023-09-07T10:54:45;4.90;;;4.32;;
64799;SDS011;51233;51.982;4.594;2023-09-07T10:57:55;6.68;;;4.60;;
64799;SDS011;51233;51.982;4.594;2023-09-07T11:00:55;4.90;;;4.40;;
64799;SDS011;51233;51.982;4.594;2023-09-07T11:03:56;11.02;;;3.78;;
64799;SDS011;51233;51.982;4.594;2023-09-07T11:06:56;3.83;;;3.53;;
64799;SDS011;51233;51.982;4.594;2023-09-07T11:09:56;2.80;;;2.60;;
64799;SDS011;51233;51.982;4.594;2023-09-07T11:12:57;5.23;;;3.37;;
64799;SDS011;51233;51.982;4.594;2023-09-07T11:15:57;7.07;;;3.33;;
64799;SDS011;51233;51.982;4.594;2023-09-07T11:19:01;7.93;;;3.88;;
64799;SDS011;51233;51.982;4.594;2023-09-07T11:22:02;5.10;;;3.70;;
64799;SDS011;51233;51.982;4.594;2023-09-07T11:25:04;5.57;;;3.45;;
64799;SDS011;51233;51.982;4.594;2023-09-07T11:28:05;3.17;;;2.80;;
64799;SDS011;51233;51.982;4.594;2023-09-07T11:31:06;6.57;;;3.25;;
64799;SDS011;51233;51.982;4.594;2023-09-07T11:34:09;5.10;;;4.00;;
64799;SDS011;51233;51.982;4.594;2023-09-07T11:37:10;6.63;;;3.42;;
64799;SDS011;51233;51.982;4.594;2023-09-07T11:40:10;9.63;;;3.15;;
64799;SDS011;51233;51.982;4.594;2023-09-07T11:43:12;3.80;;;3.47;;
64799;SDS011;51233;51.982;4.594;2023-09-07T11:46:12;4.55;;;2.55;;
64799;SDS011;51233;51.982;4.594;2023-09-07T11:49:12;5.13;;;3.50;;
64799;SDS011;51233;51.982;4.594;2023-09-07T11:52:13;3.97;;;3.30;;
64799;SDS011;51233;51.982;4.594;2023-09-07T11:55:14;8.57;;;3.67;;
64799;SDS011;51233;51.982;4.594;2023-09-07T11:58:14;4.10;;;3.13;;
64799;SDS011;51233;51.982;4.594;2023-09-07T12:01:14;4.67;;;3.00;;
64799;SDS011;51233;51.982;4.594;2023-09-07T12:04:16;6.20;;;3.50;;
64799;SDS011;51233;51.982;4.594;2023-09-07T12:07:16;6.15;;;2.90;;
64799;SDS011;51233;51.982;4.594;2023-09-07T12:10:16;5.70;;;3.40;;
64799;SDS011;51233;51.982;4.594;2023-09-07T12:13:17;3.53;;;3.23;;
64799;SDS011;51233;51.982;4.594;2023-09-07T12:16:17;3.47;;;3.17;;
64799;SDS011;51233;51.982;4.594;2023-09-07T12:19:17;7.97;;;3.37;;
64799;SDS011;51233;51.982;4.594;2023-09-07T12:22:17;6.82;;;3.45;;
64799;SDS011;51233;51.982;4.594;2023-09-07T12:28:18;2.83;;;2.57;;
64799;SDS011;51233;51.982;4.594;2023-09-07T12:34:21;2.65;;;2.25;;
64799;SDS011;51233;51.982;4.594;2023-09-07T12:37:22;5.07;;;3.07;;
64799;SDS011;51233;51.982;4.594;2023-09-07T12:40:23;3.80;;;2.78;;
64799;SDS011;51233;51.982;4.594;2023-09-07T12:46:25;9.40;;;3.73;;
64799;SDS011;51233;51.982;4.594;2023-09-07T12:52:25;4.20;;;3.85;;
64799;SDS011;51233;51.982;4.594;2023-09-07T12:58:25;5.70;;;3.25;;
64799;SDS011;51233;51.982;4.594;2023-09-07T13:01:26;3.40;;;2.40;;
64799;SDS011;51233;51.982;4.594;2023-09-07T13:04:26;3.95;;;2.70;;
64799;SDS011;51233;51.982;4.594;2023-09-07T13:07:26;5.40;;;2.87;;
64799;SDS011;51233;51.982;4.594;2023-09-07T13:10:26;3.00;;;2.13;;
64799;SDS011;51233;51.982;4.594;2023-09-07T13:13:49;3.83;;;3.25;;
64799;SDS011;51233;51.982;4.594;2023-09-07T13:16:48;3.47;;;3.00;;
64799;SDS011;51233;51.982;4.594;2023-09-07T13:19:50;3.50;;;3.20;;
64799;SDS011;51233;51.982;4.594;2023-09-07T13:25:51;2.83;;;2.63;;
64799;SDS011;51233;51.982;4.594;2023-09-07T13:28:52;3.23;;;2.93;;
64799;SDS011;51233;51.982;4.594;2023-09-07T13:31:55;4.65;;;3.15;;
64799;SDS011;51233;51.982;4.594;2023-09-07T13:34:55;3.55;;;2.90;;
64799;SDS011;51233;51.982;4.594;2023-09-07T13:37:55;6.43;;;3.40;;
64799;SDS011;51233;51.982;4.594;2023-09-07T13:40:55;2.90;;;2.67;;
64799;SDS011;51233;51.982;4.594;2023-09-07T13:43:55;3.40;;;3.07;;
64799;SDS011;51233;51.982;4.594;2023-09-07T13:46:56;6.85;;;3.40;;
64799;SDS011;51233;51.982;4.594;2023-09-07T13:49:57;4.17;;;2.77;;
64799;SDS011;51233;51.982;4.594;2023-09-07T13:53:00;5.72;;;3.00;;
64799;SDS011;51233;51.982;4.594;2023-09-07T13:56:00;3.30;;;3.00;;
64799;SDS011;51233;51.982;4.594;2023-09-07T13:59:00;2.88;;;2.55;;
64799;SDS011;51233;51.982;4.594;2023-09-07T14:02:00;3.70;;;2.90;;
64799;SDS011;51233;51.982;4.594;2023-09-07T14:05:00;3.75;;;3.05;;
64799;SDS011;51233;51.982;4.594;2023-09-07T14:08:01;5.78;;;3.67;;
64799;SDS011;51233;51.982;4.594;2023-09-07T14:11:01;3.30;;;3.00;;
64799;SDS011;51233;51.982;4.594;2023-09-07T14:14:01;3.50;;;3.05;;
64799;SDS011;51233;51.982;4.594;2023-09-07T14:17:02;6.20;;;2.60;;
64799;SDS011;51233;51.982;4.594;2023-09-07T14:20:02;2.47;;;2.38;;
64799;SDS011;51233;51.982;4.594;2023-09-07T14:23:02;4.45;;;3.05;;
64799;SDS011;51233;51.982;4.594;2023-09-07T14:26:03;3.58;;;3.30;;
64799;SDS011;51233;51.982;4.594;2023-09-07T14:29:03;4.53;;;2.73;;
64799;SDS011;51233;51.982;4.594;2023-09-07T14:32:04;5.20;;;3.20;;
64799;SDS011;51233;51.982;4.594;2023-09-07T14:35:05;5.05;;;2.83;;
64799;SDS011;51233;51.982;4.594;2023-09-07T14:38:05;4.85;;;2.75;;
64799;SDS011;51233;51.982;4.594;2023-09-07T14:41:05;4.28;;;3.35;;
64799;SDS011;51233;51.982;4.594;2023-09-07T14:44:12;3.95;;;2.95;;
64799;SDS011;51233;51.982;4.594;2023-09-07T14:47:12;2.83;;;2.63;;
64799;SDS011;51233;51.982;4.594;2023-09-07T14:50:12;3.28;;;2.92;;
64799;SDS011;51233;51.982;4.594;2023-09-07T14:53:12;5.75;;;3.40;;
64799;SDS011;51233;51.982;4.594;2023-09-07T14:56:12;6.90;;;3.42;;
64799;SDS011;51233;51.982;4.594;2023-09-07T14:59:13;3.20;;;2.80;;
64799;SDS011;51233;51.982;4.594;2023-09-07T15:02:13;4.73;;;3.07;;
64799;SDS011;51233;51.982;4.594;2023-09-07T15:05:13;10.02;;;3.33;;
64799;SDS011;51233;51.982;4.594;2023-09-07T15:08:13;2.73;;;2.53;;
64799;SDS011;51233;51.982;4.594;2023-09-07T15:11:14;3.88;;;2.50;;
64799;SDS011;51233;51.982;4.594;2023-09-07T15:14:14;5.03;;;3.42;;
64799;SDS011;51233;51.982;4.594;2023-09-07T15:17:15;7.15;;;3.63;;
64799;SDS011;51233;51.982;4.594;2023-09-07T15:20:15;4.55;;;3.28;;
64799;SDS011;51233;51.982;4.594;2023-09-07T15:23:15;4.93;;;3.60;;
64799;SDS011;51233;51.982;4.594;2023-09-07T15:26:15;2.90;;;2.70;;
64799;SDS011;51233;51.982;4.594;2023-09-07T15:29:16;5.90;;;3.13;;
64799;SDS011;51233;51.982;4.594;2023-09-07T15:32:16;4.35;;;3.35;;
64799;SDS011;51233;51.982;4.594;2023-09-07T15:35:16;5.75;;;3.08;;
64799;SDS011;51233;51.982;4.594;2023-09-07T15:38:17;4.18;;;3.60;;
64799;SDS011;51233;51.982;4.594;2023-09-07T15:41:17;8.38;;;3.45;;
64799;SDS011;51233;51.982;4.594;2023-09-07T15:44:17;2.80;;;2.60;;
64799;SDS011;51233;51.982;4.594;2023-09-07T15:47:17;2.70;;;2.50;;
64799;SDS011;51233;51.982;4.594;2023-09-07T15:53:18;3.33;;;3.03;;
64799;SDS011;51233;51.982;4.594;2023-09-07T15:56:19;5.45;;;3.08;;
64799;SDS011;51233;51.982;4.594;2023-09-07T16:02:23;3.83;;;3.40;;
64799;SDS011;51233;51.982;4.594;2023-09-07T16:08:25;5.07;;;3.33;;
64799;SDS011;51233;51.982;4.594;2023-09-07T16:11:28;4.65;;;3.45;;
64799;SDS011;51233;51.982;4.594;2023-09-07T16:17:28;3.40;;;3.10;;
64799;SDS011;51233;51.982;4.594;2023-09-07T16:23:29;2.80;;;2.63;;
64799;SDS011;51233;51.982;4.594;2023-09-07T16:26:29;7.70;;;2.85;;
64799;SDS011;51233;51.982;4.594;2023-09-07T16:32:29;3.05;;;2.58;;
64799;SDS011;51233;51.982;4.594;2023-09-07T16:35:29;3.72;;;3.28;;
64799;SDS011;51233;51.982;4.594;2023-09-07T16:38:29;3.30;;;2.80;;
64799;SDS011;51233;51.982;4.594;2023-09-07T16:41:30;4.70;;;3.30;;
64799;SDS011;51233;51.982;4.594;2023-09-07T16:44:30;6.93;;;3.50;;
64799;SDS011;51233;51.982;4.594;2023-09-07T16:47:30;3.17;;;2.87;;
64799;SDS011;51233;51.982;4.594;2023-09-07T16:50:30;3.23;;;2.93;;
64799;SDS011;51233;51.982;4.594;2023-09-07T16:53:31;5.30;;;3.22;;
64799;SDS011;51233;51.982;4.594;2023-09-07T16:56:32;5.07;;;3.85;;
64799;SDS011;51233;51.982;4.594;2023-09-07T16:59:32;7.83;;;4.20;;
64799;SDS011;51233;51.982;4.594;2023-09-07T17:02:33;3.03;;;2.80;;
64799;SDS011;51233;51.982;4.594;2023-09-07T17:05:33;5.68;;;3.17;;
64799;SDS011;51233;51.982;4.594;2023-09-07T17:08:34;2.50;;;2.30;;
64799;SDS011;51233;51.982;4.594;2023-09-07T17:11:34;5.25;;;3.47;;
64799;SDS011;51233;51.982;4.594;2023-09-07T17:14:35;4.05;;;2.90;;
64799;SDS011;51233;51.982;4.594;2023-09-07T17:17:35;3.00;;;2.70;;
64799;SDS011;51233;51.982;4.594;2023-09-07T17:20:35;2.43;;;2.23;;
64799;SDS011;51233;51.982;4.594;2023-09-07T17:23:36;3.50;;;2.58;;
64799;SDS011;51233;51.982;4.594;2023-09-07T17:26:36;2.47;;;2.38;;
64799;SDS011;51233;51.982;4.594;2023-09-07T17:29:37;2.57;;;2.40;;
64799;SDS011;51233;51.982;4.594;2023-09-07T17:32:37;2.95;;;2.25;;
64799;SDS011;51233;51.982;4.594;2023-09-07T17:35:38;2.47;;;2.33;;
64799;SDS011;51233;51.982;4.594;2023-09-07T17:38:38;4.90;;;3.00;;
64799;SDS011;51233;51.982;4.594;2023-09-07T17:41:38;4.88;;;2.67;;
64799;SDS011;51233;51.982;4.594;2023-09-07T17:44:39;4.75;;;2.65;;
64799;SDS011;51233;51.982;4.594;2023-09-07T17:47:39;3.70;;;3.37;;
64799;SDS011;51233;51.982;4.594;2023-09-07T17:50:39;2.53;;;2.27;;
64799;SDS011;51233;51.982;4.594;2023-09-07T17:53:40;3.67;;;3.33;;
64799;SDS011;51233;51.982;4.594;2023-09-07T17:56:40;4.93;;;3.38;;
64799;SDS011;51233;51.982;4.594;2023-09-07T17:59:44;4.50;;;3.60;;
64799;SDS011;51233;51.982;4.594;2023-09-07T18:02:44;6.13;;;3.57;;
64799;SDS011;51233;51.982;4.594;2023-09-07T18:05:44;4.73;;;3.30;;
64799;SDS011;51233;51.982;4.594;2023-09-07T18:08:44;5.80;;;3.73;;
64799;SDS011;51233;51.982;4.594;2023-09-07T18:11:45;3.07;;;2.87;;
64799;SDS011;51233;51.982;4.594;2023-09-07T18:14:49;6.07;;;3.80;;
64799;SDS011;51233;51.982;4.594;2023-09-07T18:17:49;7.30;;;3.92;;
64799;SDS011;51233;51.982;4.594;2023-09-07T18:20:49;3.80;;;3.50;;
64799;SDS011;51233;51.982;4.594;2023-09-07T18:23:50;5.07;;;3.67;;
64799;SDS011;51233;51.982;4.594;2023-09-07T18:26:50;4.07;;;3.67;;
64799;SDS011;51233;51.982;4.594;2023-09-07T18:29:50;3.97;;;3.67;;
64799;SDS011;51233;51.982;4.594;2023-09-07T18:32:51;3.85;;;3.55;;
64799;SDS011;51233;51.982;4.594;2023-09-07T18:36:01;4.53;;;3.43;;
64799;SDS011;51233;51.982;4.594;2023-09-07T18:39:01;5.43;;;3.63;;
64799;SDS011;51233;51.982;4.594;2023-09-07T18:42:02;4.00;;;3.53;;
64799;SDS011;51233;51.982;4.594;2023-09-07T18:45:03;4.18;;;3.70;;
64799;SDS011;51233;51.982;4.594;2023-09-07T18:48:03;5.40;;;3.95;;
64799;SDS011;51233;51.982;4.594;2023-09-07T18:51:04;4.13;;;3.40;;